Spicewood's Hourly Summary for Friday, July 6, 2018
Hour Temp
(f)
RH
(%)
Solar Rad.
(MJ/m2)
Rainfall
(in)
Wind
(mph)
7/6/2018 12:00 AM 78 80 0 0 0.87
7/6/2018 1:00 AM 77 81 0 0 1.03
7/6/2018 2:00 AM 76 86 0 0 0.62
7/6/2018 3:00 AM 75 86 0 0 0.55
7/6/2018 4:00 AM 75 86 0 0 0.62
7/6/2018 5:00 AM 75 89 0 0 0.95
7/6/2018 6:00 AM 75 89 0 0.04 1.09
7/6/2018 7:00 AM 74 98 0.03 0 1.83
7/6/2018 8:00 AM 77 98 0.41 0 0.67
7/6/2018 9:00 AM 81 87 0.67 0.03 0.98
7/6/2018 10:00 AM 83 76 1.37 0 2.21
7/6/2018 11:00 AM 87 71 2.07 0 3.37
7/6/2018 12:00 PM 90 55 1 0 3.82
7/6/2018 1:00 PM 92 53 2.28 0 3.96
7/6/2018 2:00 PM 93 45 3.12 0 4
7/6/2018 3:00 PM 95 41 2.7 0 4.77
7/6/2018 4:00 PM 95 35 2.65 0 4.89
7/6/2018 5:00 PM 95 34 2.16 0 4.94
7/6/2018 6:00 PM 95 35 1.83 0 5.05
7/6/2018 7:00 PM 94 40 1.08 0 5.08
7/6/2018 8:00 PM 92 52 0.37 0 5.07
7/6/2018 9:00 PM 86 57 0.03 0 3.37
7/6/2018 10:00 PM 84 59 0 0 2.39
7/6/2018 11:00 PM 83 67 0 0 2.62
Data Summary 84 66 21.77 0.07 2.70